Time;durP1;ratioP1;P1;durP2;ratioP2;P2;SDS_P1;SDS_P2;PMS_P1;PMS_P2;Temp;Humidity;BMP_temperature;BMP_pressure;BME280_temperature;BME280_humidity;BME280_pressure;Samples;Min_cycle;Max_cycle;Signal;HPM_P1;HPM_P2
2022/12/15 00:39:12;;;;;;;75.72;41.90;;;0.70;99.90;;;;;;5072660;28;20158;-69
2022/12/15 00:41:37;;;;;;;78.00;40.45;;;0.70;99.90;;;;;;5071924;28;20112;-70
2022/12/15 00:44:03;;;;;;;70.28;39.78;;;0.70;99.90;;;;;;5072711;28;20380;-68
2022/12/15 01:22:04;;;;;;;72.82;40.40;;;0.80;99.90;;;;;;5072197;28;20109;-68
2022/12/15 01:24:30;;;;;;;80.15;42.63;;;0.90;99.90;;;;;;5054356;28;20111;-68
2022/12/15 01:26:56;;;;;;;78.05;41.08;;;0.80;99.90;;;;;;5052270;28;20818;-68
2022/12/15 01:29:22;;;;;;;74.43;39.47;;;0.80;99.90;;;;;;5052300;28;20017;-68
2022/12/15 01:31:48;;;;;;;72.88;40.90;;;0.80;99.90;;;;;;5051431;28;20040;-68
2022/12/15 01:34:13;;;;;;;76.90;42.40;;;0.90;99.90;;;;;;5052303;28;20112;-68
2022/12/15 01:36:39;;;;;;;72.22;40.72;;;0.90;99.90;;;;;;5051282;28;20067;-70
2022/12/15 01:39:05;;;;;;;74.40;41.33;;;0.80;99.90;;;;;;5051995;28;20033;-69
2022/12/15 01:41:30;;;;;;;75.15;41.08;;;0.80;99.90;;;;;;5052110;28;20029;-69
2022/12/15 01:44:15;;;;;;;78.68;42.72;;;0.90;99.90;;;;;;5050654;28;20148;-68
2022/12/15 01:46:41;;;;;;;75.25;40.40;;;0.90;99.90;;;;;;5052282;28;20113;-69
2022/12/15 01:49:21;;;;;;;77.75;42.10;;;0.90;99.90;;;;;;5051926;28;20448;-69
2022/12/15 01:51:51;;;;;;;74.57;39.35;;;0.90;99.90;;;;;;5051714;28;20017;-68
2022/12/15 01:54:35;;;;;;;77.13;40.22;;;0.90;99.90;;;;;;5051821;28;20466;-68
2022/12/15 01:57:12;;;;;;;70.85;39.85;;;0.90;99.90;;;;;;5051779;28;20029;-68
2022/12/15 01:59:43;;;;;;;74.32;40.00;;;0.90;99.90;;;;;;5050998;28;20025;-71
2022/12/15 02:02:10;;;;;;;74.90;39.92;;;0.90;99.90;;;;;;5051364;28;20115;-68
2022/12/15 02:04:36;;;;;;;70.93;39.25;;;1.00;99.90;;;;;;5051390;28;20037;-69
2022/12/15 02:07:03;;;;;;;76.45;41.38;;;0.90;99.90;;;;;;5050078;28;20029;-68
2022/12/15 02:09:29;;;;;;;73.80;40.70;;;1.00;99.90;;;;;;5050873;28;20024;-68
2022/12/15 02:12:19;;;;;;;73.18;40.95;;;0.90;99.90;;;;;;5050769;28;20025;-68
2022/12/15 02:14:53;;;;;;;73.38;41.03;;;0.90;99.90;;;;;;5050582;28;20057;-69
2022/12/15 02:17:39;;;;;;;76.85;41.40;;;0.90;99.90;;;;;;5051053;28;20481;-69
2022/12/15 02:20:05;;;;;;;79.05;40.20;;;0.90;99.90;;;;;;5051361;28;20021;-69
2022/12/15 02:22:57;;;;;;;75.30;40.58;;;0.90;99.90;;;;;;5051635;28;20032;-68
2022/12/15 02:25:56;;;;;;;76.45;41.53;;;0.90;99.90;;;;;;5052722;28;20056;-68
2022/12/15 02:28:51;;;;;;;72.63;39.95;;;0.90;99.90;;;;;;5043819;28;20041;-68
2022/12/15 02:34:13;;;;;;;;;;;1.00;99.90;;;;;;5062579;28;20066;-67
2022/12/15 02:36:48;;;;;;;76.47;39.53;;;1.00;99.90;;;;;;5031926;28;20003;-69
2022/12/15 02:39:14;;;;;;;77.88;40.63;;;1.00;99.90;;;;;;5032075;28;20034;-68
2022/12/15 02:41:42;;;;;;;73.28;40.65;;;1.00;99.90;;;;;;5031944;28;20036;-69
2022/12/15 02:44:10;;;;;;;72.68;40.03;;;1.00;99.90;;;;;;5032094;28;20036;-68
2022/12/15 02:46:59;;;;;;;69.45;39.03;;;1.00;99.90;;;;;;5062072;28;20025;-69
2022/12/15 02:49:34;;;;;;;75.30;39.60;;;1.00;99.90;;;;;;5071892;28;20470;-68
2022/12/15 02:52:18;;;;;;;73.22;38.60;;;1.00;99.90;;;;;;5071637;28;20039;-69
2022/12/15 02:55:10;;;;;;;76.03;40.08;;;1.00;99.90;;;;;;5071617;28;20043;-69
2022/12/15 02:57:38;;;;;;;72.45;40.22;;;1.00;99.90;;;;;;5072008;28;20028;-69
2022/12/15 03:00:08;;;;;;;74.78;39.53;;;1.00;99.90;;;;;;5051502;28;20033;-69
2022/12/15 03:02:41;;;;;;;73.18;38.67;;;1.00;99.90;;;;;;5051906;28;20028;-68
2022/12/15 03:05:08;;;;;;;70.20;39.13;;;1.10;99.90;;;;;;5051917;28;20041;-68
2022/12/15 03:07:34;;;;;;;78.22;40.97;;;1.10;99.90;;;;;;5051975;28;20029;-67
2022/12/15 03:10:02;;;;;;;74.32;39.95;;;1.10;99.90;;;;;;5051397;28;20235;-68
2022/12/15 03:12:28;;;;;;;74.25;39.55;;;1.10;99.90;;;;;;5051851;28;20029;-68
2022/12/15 03:14:53;;;;;;;69.47;39.25;;;1.10;99.90;;;;;;5051292;28;20033;-69
2022/12/15 03:17:19;;;;;;;70.03;40.13;;;1.10;99.90;;;;;;5051691;28;20033;-68
2022/12/15 03:19:45;;;;;;;72.30;39.50;;;1.10;99.90;;;;;;5053917;28;20350;-69
2022/12/15 03:22:10;;;;;;;73.93;38.63;;;1.10;99.90;;;;;;5054749;28;20370;-68
2022/12/15 03:24:36;;;;;;;76.00;38.83;;;1.10;99.90;;;;;;5055247;28;20032;-68
2022/12/15 03:27:03;;;;;;;74.82;39.38;;;1.10;99.90;;;;;;5054596;28;20033;-69
2022/12/15 03:29:29;;;;;;;73.75;40.90;;;1.10;99.90;;;;;;5053659;28;20056;-69
2022/12/15 03:31:54;;;;;;;77.75;39.55;;;1.10;99.90;;;;;;5054792;28;20201;-69
2022/12/15 03:34:20;;;;;;;71.65;39.50;;;1.10;99.90;;;;;;5054681;28;20087;-68
2022/12/15 03:36:46;;;;;;;77.47;40.78;;;1.20;99.90;;;;;;5054260;28;20056;-70
2022/12/15 03:39:11;;;;;;;75.68;39.55;;;1.10;99.90;;;;;;5055074;28;20036;-68
2022/12/15 03:41:37;;;;;;;76.35;39.35;;;1.10;99.90;;;;;;5055078;28;20025;-68
2022/12/15 03:44:03;;;;;;;69.93;39.72;;;1.20;99.90;;;;;;5054498;28;20036;-69
2022/12/15 03:46:28;;;;;;;77.50;40.72;;;1.20;99.90;;;;;;5054633;28;20021;-69
2022/12/15 03:48:54;;;;;;;73.57;40.33;;;1.20;99.90;;;;;;5054450;28;20032;-68
2022/12/15 03:51:20;;;;;;;77.05;41.10;;;1.20;99.90;;;;;;5053205;28;20032;-68
2022/12/15 03:53:49;;;;;;;72.15;39.47;;;1.20;99.90;;;;;;5054336;28;20112;-68
2022/12/15 03:56:15;;;;;;;75.88;39.35;;;1.20;99.90;;;;;;5054718;28;20028;-69
2022/12/15 03:58:41;;;;;;;79.18;41.78;;;1.20;99.90;;;;;;5054977;28;20444;-68
2022/12/15 04:01:12;;;;;;;73.75;39.58;;;1.20;99.90;;;;;;5054261;28;20112;-68
2022/12/15 04:03:37;;;;;;;77.22;40.67;;;1.20;99.90;;;;;;5054596;28;20116;-67
2022/12/15 04:06:03;;;;;;;76.80;40.10;;;1.20;99.90;;;;;;5054390;28;20060;-68
2022/12/15 04:08:29;;;;;;;74.07;40.00;;;1.20;99.90;;;;;;5054465;28;20462;-69
2022/12/15 04:10:54;;;;;;;75.38;42.83;;;1.20;99.90;;;;;;5052820;28;20031;-68
2022/12/15 04:13:20;;;;;;;76.10;42.03;;;1.20;99.90;;;;;;5054360;28;20461;-68
2022/12/15 04:15:46;;;;;;;76.75;41.72;;;1.20;99.90;;;;;;5054373;28;20044;-68
2022/12/15 04:18:11;;;;;;;74.90;41.75;;;1.20;99.90;;;;;;5053961;28;20102;-69
2022/12/15 04:20:39;;;;;;;76.97;42.25;;;1.20;99.90;;;;;;5054080;28;20183;-68
2022/12/15 04:23:07;;;;;;;76.03;40.50;;;1.20;99.90;;;;;;5052419;28;20025;-68
2022/12/15 05:31:46;;;;;;;88.75;45.95;;;1.20;99.90;;;;;;5052574;28;20512;-69
2022/12/15 05:34:12;;;;;;;86.63;44.85;;;1.20;99.90;;;;;;5052443;28;20029;-69
2022/12/15 05:36:37;;;;;;;91.05;48.00;;;1.10;99.90;;;;;;5050881;28;20045;-69
2022/12/15 05:39:03;;;;;;;87.72;44.85;;;1.20;99.90;;;;;;5052603;28;20040;-69
2022/12/15 05:41:29;;;;;;;91.72;47.03;;;1.10;99.90;;;;;;5052414;28;20021;-69
2022/12/15 05:43:54;;;;;;;79.53;44.13;;;1.10;99.90;;;;;;5052770;28;20025;-69
2022/12/15 05:46:20;;;;;;;87.78;46.45;;;1.10;99.90;;;;;;5052509;28;20061;-69
2022/12/15 05:48:45;;;;;;;85.50;46.05;;;1.20;99.90;;;;;;5052586;28;20028;-69
2022/12/15 05:51:12;;;;;;;87.75;46.50;;;1.20;99.90;;;;;;5052371;28;20118;-69
2022/12/15 05:53:39;;;;;;;93.07;47.33;;;1.20;99.90;;;;;;5052618;28;20553;-69
2022/12/15 05:56:08;;;;;;;89.20;46.97;;;1.20;99.90;;;;;;5052009;28;20068;-69
2022/12/15 05:58:34;;;;;;;93.50;48.53;;;1.20;99.90;;;;;;5052530;28;20029;-69
2022/12/15 06:01:08;;;;;;;88.53;46.28;;;1.20;99.90;;;;;;5052132;28;20406;-69
2022/12/15 06:03:34;;;;;;;89.43;46.17;;;1.20;99.90;;;;;;5052411;28;20025;-69
2022/12/15 06:06:01;;;;;;;89.53;46.63;;;1.20;99.90;;;;;;5051974;28;20079;-69
2022/12/15 06:08:29;;;;;;;85.35;47.60;;;1.20;99.90;;;;;;5050909;28;20355;-68
2022/12/15 06:10:56;;;;;;;88.38;49.10;;;1.20;99.90;;;;;;5052148;28;20021;-68
2022/12/15 06:13:25;;;;;;;80.43;44.50;;;1.20;99.90;;;;;;5051855;28;20029;-68
2022/12/15 06:16:14;;;;;;;90.38;47.25;;;1.20;99.90;;;;;;5052117;28;20120;-69
2022/12/15 06:18:45;;;;;;;89.07;45.72;;;1.20;99.90;;;;;;5052361;28;20528;-69
2022/12/15 06:21:16;;;;;;;86.03;45.53;;;1.20;99.90;;;;;;5050721;28;20063;-69
2022/12/15 06:23:42;;;;;;;78.00;43.55;;;1.30;99.90;;;;;;5052513;28;20462;-69
2022/12/15 06:26:13;;;;;;;80.57;43.80;;;1.30;99.90;;;;;;5052087;28;20139;-69
2022/12/15 06:28:39;;;;;;;80.73;44.13;;;1.30;99.90;;;;;;5052378;28;20062;-69
2022/12/15 06:31:07;;;;;;;85.78;43.05;;;1.30;99.90;;;;;;5051909;28;20022;-69
2022/12/15 06:33:33;;;;;;;74.57;41.50;;;1.40;99.90;;;;;;5052424;28;20032;-68
2022/12/15 06:36:08;;;;;;;78.60;41.83;;;1.40;99.90;;;;;;5052058;28;20056;-69
2022/12/15 06:38:35;;;;;;;77.43;41.63;;;1.40;99.90;;;;;;5052221;28;20110;-69
2022/12/15 06:41:02;;;;;;;75.25;40.58;;;1.40;99.90;;;;;;5051758;28;20047;-68
2022/12/15 06:43:29;;;;;;;72.90;38.60;;;1.40;99.90;;;;;;5051968;28;20025;-68
2022/12/15 06:45:55;;;;;;;76.13;40.13;;;1.40;99.90;;;;;;5050820;28;20040;-68
2022/12/15 06:48:23;;;;;;;71.75;39.28;;;1.40;99.90;;;;;;5051699;28;20463;-68
2022/12/15 06:50:50;;;;;;;71.40;38.70;;;1.40;99.90;;;;;;5052036;28;20111;-69
2022/12/15 06:53:17;;;;;;;75.13;39.70;;;1.40;99.90;;;;;;5051637;28;20338;-69
2022/12/15 06:55:43;;;;;;;66.88;37.72;;;1.50;99.90;;;;;;5055879;28;20098;-69
2022/12/15 06:58:13;;;;;;;75.10;40.20;;;1.50;99.90;;;;;;5055521;28;20083;-70
2022/12/15 07:00:41;;;;;;;76.70;40.75;;;1.50;99.90;;;;;;5055991;28;20424;-68
2022/12/15 07:03:09;;;;;;;74.00;39.83;;;1.50;99.90;;;;;;5055308;28;20503;-69
2022/12/15 07:05:35;;;;;;;64.75;35.90;;;1.50;99.90;;;;;;5056096;28;20115;-69
2022/12/15 07:08:00;;;;;;;66.60;36.33;;;1.50;99.90;;;;;;5055752;28;20497;-69
2022/12/15 07:10:26;;;;;;;67.38;36.58;;;1.50;99.90;;;;;;5054114;28;20486;-68
2022/12/15 07:12:54;;;;;;;70.03;38.03;;;1.50;99.90;;;;;;5055777;28;20060;-68
2022/12/15 07:15:20;;;;;;;77.70;43.05;;;1.50;99.90;;;;;;5055167;28;20040;-68
2022/12/15 07:17:45;;;;;;;69.13;39.00;;;1.60;99.90;;;;;;5055372;28;20017;-69
2022/12/15 07:20:11;;;;;;;79.50;40.42;;;1.60;99.90;;;;;;5053903;28;20033;-70
2022/12/15 07:22:37;;;;;;;68.95;38.60;;;1.60;99.90;;;;;;5055467;28;20479;-69
2022/12/15 07:25:03;;;;;;;73.25;38.33;;;1.60;99.90;;;;;;5054323;28;20477;-69
2022/12/15 07:27:29;;;;;;;66.00;39.20;;;1.60;99.90;;;;;;5054426;28;20017;-69
2022/12/15 07:29:54;;;;;;;68.35;38.75;;;1.60;99.90;;;;;;5055257;28;20087;-69
2022/12/15 07:32:20;;;;;;;63.13;36.55;;;1.60;99.90;;;;;;5054672;28;20021;-69
2022/12/15 07:34:46;;;;;;;72.28;38.53;;;1.60;99.90;;;;;;5055294;28;20424;-69
2022/12/15 07:37:11;;;;;;;63.08;36.92;;;1.60;99.90;;;;;;5054195;28;20445;-69
2022/12/15 07:39:37;;;;;;;65.60;35.70;;;1.70;99.90;;;;;;5055236;28;20075;-69
2022/12/15 07:42:03;;;;;;;70.82;37.70;;;1.70;99.90;;;;;;5053587;28;20075;-69
2022/12/15 07:44:28;;;;;;;63.10;34.33;;;1.70;99.90;;;;;;5054705;28;20095;-69
2022/12/15 07:46:54;;;;;;;63.83;34.55;;;1.70;99.90;;;;;;5055197;28;20359;-69
2022/12/15 07:49:20;;;;;;;59.15;34.05;;;1.70;99.90;;;;;;5054334;28;20096;-69
2022/12/15 07:51:46;;;;;;;61.53;33.38;;;1.70;99.90;;;;;;5054494;28;20049;-69
2022/12/15 07:54:12;;;;;;;62.28;36.13;;;1.70;99.90;;;;;;5054033;28;20036;-70
2022/12/15 07:56:39;;;;;;;60.60;33.97;;;1.70;99.90;;;;;;5054616;28;20111;-69
2022/12/15 07:59:06;;;;;;;64.38;36.13;;;1.70;99.90;;;;;;5070002;28;20130;-69
2022/12/15 08:01:32;;;;;;;64.43;35.40;;;1.70;99.90;;;;;;5054321;28;20025;-69
2022/12/15 08:03:57;;;;;;;57.85;33.33;;;1.70;99.90;;;;;;5053295;28;20450;-70
2022/12/15 08:06:23;;;;;;;60.00;34.40;;;1.80;99.90;;;;;;5052855;28;20029;-69
2022/12/15 08:08:50;;;;;;;61.75;35.25;;;1.80;99.90;;;;;;5054712;28;20505;-70
2022/12/15 08:11:16;;;;;;;58.55;33.67;;;1.80;99.90;;;;;;5054192;28;20029;-69
2022/12/15 08:13:43;;;;;;;55.22;32.95;;;1.80;99.90;;;;;;5054264;28;20486;-69
2022/12/15 08:16:10;;;;;;;63.47;33.72;;;1.80;99.90;;;;;;5054399;28;20120;-69
2022/12/15 08:18:36;;;;;;;63.22;34.25;;;1.80;99.90;;;;;;5054601;28;20028;-69
2022/12/15 08:21:03;;;;;;;58.88;33.92;;;1.80;99.90;;;;;;5054616;28;20029;-70
2022/12/15 08:23:29;;;;;;;60.15;34.90;;;1.90;99.90;;;;;;5053719;28;20059;-69
2022/12/15 08:26:01;;;;;;;63.10;35.05;;;1.90;99.90;;;;;;5053729;28;20107;-70
2022/12/15 08:28:27;;;;;;;68.15;36.53;;;1.90;99.90;;;;;;5053703;28;20029;-68
2022/12/15 08:30:52;;;;;;;65.38;36.70;;;1.90;99.90;;;;;;5054002;28;20082;-69
2022/12/15 08:33:18;;;;;;;67.35;38.15;;;1.90;99.90;;;;;;5053365;28;20432;-69
2022/12/15 08:35:44;;;;;;;60.78;35.55;;;2.00;99.90;;;;;;5053668;28;20033;-69
2022/12/15 08:38:09;;;;;;;73.88;41.05;;;2.00;99.90;;;;;;5049501;28;20017;-70
2022/12/15 08:40:35;;;;;;;66.10;36.05;;;2.00;99.90;;;;;;5052713;28;20520;-68
2022/12/15 08:43:00;;;;;;;75.85;40.72;;;2.00;99.90;;;;;;5053581;28;20025;-70
2022/12/15 08:45:26;;;;;;;70.13;37.65;;;2.00;99.90;;;;;;5053047;28;20039;-70
2022/12/15 08:47:55;;;;;;;69.18;37.72;;;2.10;99.90;;;;;;5053724;28;20088;-69
2022/12/15 08:50:21;;;;;;;64.05;37.13;;;2.00;99.90;;;;;;5052836;28;20457;-69
2022/12/15 08:52:46;;;;;;;68.90;38.65;;;2.00;99.90;;;;;;5053567;28;20026;-68
2022/12/15 08:55:12;;;;;;;64.88;37.38;;;2.10;99.90;;;;;;5053452;28;20036;-72
2022/12/15 08:57:39;;;;;;;70.05;37.75;;;2.10;99.90;;;;;;5052796;28;20032;-70
2022/12/15 09:00:05;;;;;;;62.70;36.70;;;2.10;99.90;;;;;;5035799;28;20061;-70
2022/12/15 09:02:31;;;;;;;71.78;37.33;;;2.20;99.90;;;;;;5032768;28;20025;-70
2022/12/15 09:04:57;;;;;;;69.28;38.65;;;2.20;99.90;;;;;;5033705;28;20025;-70
2022/12/15 09:07:22;;;;;;;71.72;39.53;;;2.20;99.90;;;;;;5033288;28;20026;-70
2022/12/15 09:09:48;;;;;;;71.43;38.78;;;2.20;99.90;;;;;;5033410;28;20029;-70
2022/12/15 09:12:14;;;;;;;66.30;38.53;;;2.20;99.90;;;;;;5032130;28;20030;-70
2022/12/15 09:14:40;;;;;;;70.03;38.83;;;2.20;99.90;;;;;;5031625;28;20128;-70
2022/12/15 09:17:05;;;;;;;70.47;39.35;;;2.30;99.90;;;;;;5032519;28;20108;-70
2022/12/15 09:19:31;;;;;;;68.82;39.38;;;2.30;99.90;;;;;;5033056;28;20025;-70
2022/12/15 09:21:57;;;;;;;67.20;39.90;;;2.40;99.90;;;;;;5032870;28;20171;-70
2022/12/15 09:24:23;;;;;;;73.00;38.80;;;2.40;99.90;;;;;;5032527;28;20071;-69
2022/12/15 09:26:49;;;;;;;70.75;39.13;;;2.40;99.90;;;;;;5050107;28;20434;-70
2022/12/15 09:29:15;;;;;;;63.50;38.25;;;2.50;99.90;;;;;;5051567;28;20029;-69
2022/12/15 09:31:43;;;;;;;68.80;39.60;;;2.50;99.90;;;;;;5052464;28;20040;-69
2022/12/15 09:34:14;;;;;;;71.32;39.10;;;2.50;99.90;;;;;;5052760;28;20174;-68
2022/12/15 09:36:39;;;;;;;66.97;39.53;;;2.50;99.90;;;;;;5052373;28;20056;-68
2022/12/15 09:39:05;;;;;;;72.47;40.28;;;2.50;99.90;;;;;;5052685;28;20029;-69
2022/12/15 09:41:33;;;;;;;75.32;40.65;;;2.40;99.90;;;;;;5051351;28;20454;-68
2022/12/15 09:44:05;;;;;;;76.32;41.72;;;2.40;99.90;;;;;;5052123;28;20454;-68
2022/12/15 09:46:49;;;;;;;73.88;40.70;;;2.40;99.90;;;;;;5051169;28;20036;-70
2022/12/15 09:49:33;;;;;;;73.65;41.95;;;2.40;99.90;;;;;;5052643;28;20036;-69
2022/12/15 09:52:34;;;;;;;75.65;41.05;;;2.30;99.90;;;;;;5052395;28;20021;-69
2022/12/15 09:55:00;;;;;;;80.68;41.83;;;2.30;99.90;;;;;;5048417;28;20450;-70
2022/12/15 09:57:53;;;;;;;78.47;42.17;;;2.30;99.90;;;;;;5052282;28;20382;-70
2022/12/15 10:00:29;;;;;;;76.32;41.22;;;2.30;99.90;;;;;;5052357;28;20385;-70
2022/12/15 10:03:10;;;;;;;73.63;39.95;;;2.30;99.90;;;;;;5052737;28;20458;-70
2022/12/15 10:05:44;;;;;;;75.28;41.78;;;2.40;99.90;;;;;;5052174;28;20032;-70
2022/12/15 10:08:12;;;;;;;75.60;41.55;;;2.40;99.90;;;;;;5052591;28;20128;-69
2022/12/15 10:10:55;;;;;;;70.35;39.85;;;2.40;99.90;;;;;;5052030;28;20450;-70
2022/12/15 10:13:44;;;;;;;77.55;41.83;;;2.40;99.90;;;;;;5052200;28;20025;-70
2022/12/15 10:16:17;;;;;;;80.00;42.88;;;2.40;99.90;;;;;;5050921;28;20040;-70
2022/12/15 10:19:21;;;;;;;76.70;40.92;;;2.40;99.90;;;;;;5051519;28;20686;-70
2022/12/15 10:21:47;;;;;;;74.53;41.38;;;2.40;99.90;;;;;;5043193;28;20053;-69
2022/12/15 10:24:21;;;;;;;78.40;43.10;;;2.40;99.90;;;;;;5052044;28;20037;-69
2022/12/15 10:27:21;;;;;;;78.68;42.17;;;2.40;99.90;;;;;;5052063;28;20033;-69
2022/12/15 10:30:03;;;;;;;77.38;40.78;;;2.40;99.90;;;;;;5047193;28;20033;-69
2022/12/15 10:32:43;;;;;;;79.13;42.88;;;2.40;99.90;;;;;;5054717;28;20378;-71
2022/12/15 10:35:26;;;;;;;82.47;44.67;;;2.30;99.90;;;;;;5056276;28;20065;-69
2022/12/15 10:37:56;;;;;;;82.22;43.60;;;2.30;99.90;;;;;;5056375;28;20045;-69
2022/12/15 10:40:41;;;;;;;80.45;44.75;;;2.40;99.90;;;;;;5055561;28;20021;-71
2022/12/15 10:43:24;;;;;;;77.50;43.53;;;2.40;99.90;;;;;;5054954;28;20028;-69
2022/12/15 10:46:19;;;;;;;71.57;40.17;;;2.50;99.90;;;;;;5056070;28;20112;-69
2022/12/15 10:48:47;;;;;;;81.88;43.35;;;2.40;99.90;;;;;;5055249;28;20037;-69
2022/12/15 10:51:16;;;;;;;75.82;42.30;;;2.40;99.90;;;;;;5055946;28;20457;-70
2022/12/15 10:54:03;;;;;;;79.93;42.55;;;2.50;99.90;;;;;;5055178;28;20270;-70
2022/12/15 10:56:30;;;;;;;83.47;44.88;;;2.50;99.90;;;;;;5054212;28;20029;-69
2022/12/15 10:58:59;;;;;;;80.38;45.40;;;2.50;99.90;;;;;;5055701;28;20060;-70
2022/12/15 11:01:27;;;;;;;85.47;43.55;;;2.60;99.90;;;;;;5055501;28;20044;-69
2022/12/15 11:03:53;;;;;;;84.18;45.08;;;2.60;99.90;;;;;;5055860;28;20021;-69
2022/12/15 11:06:31;;;;;;;80.95;45.38;;;2.60;99.90;;;;;;5055817;28;20025;-69
2022/12/15 11:09:21;;;;;;;77.35;42.65;;;2.60;99.90;;;;;;5055536;28;20083;-69
2022/12/15 11:14:43;;;;;;;79.65;43.38;;;2.70;99.90;;;;;;5054964;28;20056;-70
2022/12/15 11:17:18;;;;;;;74.90;41.50;;;2.70;99.90;;;;;;5055451;28;20037;-69
2022/12/15 11:19:52;;;;;;;83.63;44.38;;;2.70;99.90;;;;;;5055328;28;20033;-69
2022/12/15 11:22:36;;;;;;;77.03;41.70;;;2.70;99.90;;;;;;5054104;28;20052;-69
2022/12/15 11:25:31;;;;;;;77.60;43.40;;;2.70;99.90;;;;;;5052979;28;20068;-71
2022/12/15 11:27:58;;;;;;;82.95;44.08;;;2.70;99.90;;;;;;5050180;28;20064;-68
2022/12/15 11:30:32;;;;;;;76.80;42.45;;;2.70;99.90;;;;;;5055169;28;20104;-69
2022/12/15 11:32:59;;;;;;;78.18;44.25;;;2.70;99.90;;;;;;5055228;28;20355;-69
2022/12/15 11:36:01;;;;;;;75.50;42.60;;;2.70;99.90;;;;;;5054693;28;20037;-73
2022/12/15 11:38:36;;;;;;;76.63;41.83;;;2.70;99.90;;;;;;5045591;28;20140;-70
2022/12/15 11:41:30;;;;;;;74.43;41.88;;;2.70;99.90;;;;;;5053355;28;20450;-70
2022/12/15 11:44:36;;;;;;;78.50;42.53;;;2.70;99.90;;;;;;5054746;28;20377;-69
2022/12/15 11:47:43;;;;;;;77.28;42.05;;;2.70;99.90;;;;;;5043760;28;20485;-69
2022/12/15 11:50:27;;;;;;;78.97;43.45;;;2.70;99.90;;;;;;5054782;28;20048;-69
2022/12/15 11:53:11;;;;;;;82.85;44.10;;;2.70;99.90;;;;;;5054795;28;20052;-68
2022/12/15 11:56:17;;;;;;;87.53;45.53;;;2.70;99.90;;;;;;5054269;28;20052;-70
2022/12/15 11:59:10;;;;;;;79.05;43.42;;;2.70;99.90;;;;;;5054262;28;20063;-70
2022/12/15 12:02:17;;;;;;;80.03;42.08;;;2.60;99.90;;;;;;5054146;28;20031;-70
2022/12/15 12:05:25;;;;;;;83.93;45.05;;;2.60;99.90;;;;;;5050947;28;20044;-69
2022/12/15 12:08:16;;;;;;;84.93;45.03;;;2.50;99.90;;;;;;5054079;28;20028;-68
2022/12/15 12:11:00;;;;;;;88.70;47.28;;;2.60;99.90;;;;;;5054377;28;20417;-69
2022/12/15 12:13:44;;;;;;;84.95;45.92;;;2.50;99.90;;;;;;5054751;28;20025;-69
2022/12/15 12:16:24;;;;;;;85.65;44.47;;;2.50;99.90;;;;;;5054488;28;20064;-69
2022/12/15 12:19:23;;;;;;;91.67;45.83;;;2.50;99.90;;;;;;5053690;28;20438;-69
2022/12/15 12:21:53;;;;;;;93.13;45.83;;;2.50;99.90;;;;;;5052467;28;20110;-68
2022/12/15 12:24:48;;;;;;;90.23;47.33;;;2.50;99.90;;;;;;5054880;28;20087;-69
2022/12/15 12:27:42;;;;;;;85.00;44.92;;;2.50;99.90;;;;;;5054303;28;20021;-69
2022/12/15 12:30:13;;;;;;;90.47;47.03;;;2.50;99.90;;;;;;5054024;28;20029;-68
2022/12/15 12:33:01;;;;;;;87.35;48.47;;;2.50;99.90;;;;;;5053835;28;20033;-69
2022/12/15 12:35:49;;;;;;;85.10;44.97;;;2.40;99.90;;;;;;5054123;28;20091;-68
2022/12/15 12:38:21;;;;;;;84.50;45.78;;;2.40;99.90;;;;;;5053836;28;20041;-69
2022/12/15 12:41:05;;;;;;;92.68;46.58;;;2.40;99.90;;;;;;5053855;28;20033;-68
2022/12/15 12:43:54;;;;;;;79.38;44.10;;;2.40;99.90;;;;;;5051999;28;20388;-71
2022/12/15 12:46:20;;;;;;;92.95;46.28;;;2.40;99.90;;;;;;5054147;28;20048;-69
2022/12/15 12:48:52;;;;;;;87.63;45.53;;;2.30;99.90;;;;;;5053894;28;20021;-70
2022/12/15 12:51:21;;;;;;;83.82;46.08;;;2.30;99.90;;;;;;5053278;28;20157;-69
2022/12/15 12:53:47;;;;;;;80.00;44.85;;;2.30;99.90;;;;;;5053225;28;20040;-70
2022/12/15 12:56:34;;;;;;;80.85;44.72;;;2.30;99.90;;;;;;5053801;28;20120;-70
2022/12/15 12:59:06;;;;;;;86.55;46.15;;;2.30;99.90;;;;;;5054099;28;20104;-69
2022/12/15 13:01:34;;;;;;;85.53;45.78;;;2.20;99.90;;;;;;5053128;28;20179;-71
2022/12/15 13:04:06;;;;;;;88.53;46.85;;;2.30;99.90;;;;;;5053456;28;20024;-69
2022/12/15 13:06:34;;;;;;;92.57;48.45;;;2.20;99.90;;;;;;5053156;28;20032;-73
2022/12/15 13:09:15;;;;;;;95.97;48.42;;;2.20;99.90;;;;;;5053320;28;20021;-70
2022/12/15 13:11:47;;;;;;;96.07;47.58;;;2.30;99.90;;;;;;5053181;28;20032;-70
2022/12/15 13:14:34;;;;;;;96.00;48.90;;;2.20;99.90;;;;;;5053259;28;20031;-70
2022/12/15 13:17:10;;;;;;;104.07;50.47;;;2.20;99.90;;;;;;5053562;28;20033;-70
2022/12/15 13:19:57;;;;;;;94.20;50.33;;;2.20;99.90;;;;;;5053064;28;20053;-71
2022/12/15 13:22:36;;;;;;;92.25;49.15;;;2.20;99.90;;;;;;5051622;28;20048;-70
2022/12/15 13:25:22;;;;;;;101.43;51.05;;;2.20;99.90;;;;;;5033333;28;20064;-69
2022/12/15 13:27:51;;;;;;;97.65;50.28;;;2.10;99.90;;;;;;5031369;28;20025;-70
2022/12/15 13:30:17;;;;;;;93.47;50.80;;;2.20;99.90;;;;;;5032766;28;20033;-68
2022/12/15 13:32:51;;;;;;;100.47;52.15;;;2.20;99.90;;;;;;5032950;28;20048;-70
2022/12/15 13:35:28;;;;;;;104.93;51.30;;;2.20;99.90;;;;;;5048288;28;20037;-68
2022/12/15 13:37:58;;;;;;;100.30;53.17;;;2.10;99.90;;;;;;5049664;28;20458;-69
2022/12/15 13:40:36;;;;;;;98.63;52.72;;;2.10;99.90;;;;;;5052545;28;20072;-69
2022/12/15 13:43:04;;;;;;;101.82;52.53;;;2.10;99.90;;;;;;5052688;28;20025;-70
2022/12/15 13:45:45;;;;;;;103.07;52.92;;;2.00;99.90;;;;;;5052915;28;20025;-69
2022/12/15 13:48:27;;;;;;;103.70;54.47;;;2.00;99.90;;;;;;5052713;28;20020;-70
2022/12/15 13:51:20;;;;;;;103.50;54.15;;;2.00;99.90;;;;;;5052338;28;20108;-70
2022/12/15 13:54:03;;;;;;;96.95;52.15;;;1.90;99.90;;;;;;5052051;28;20025;-70
2022/12/15 13:56:53;;;;;;;106.13;53.97;;;1.90;99.90;;;;;;5052685;28;20120;-69
2022/12/15 13:59:33;;;;;;;106.40;54.45;;;2.00;99.90;;;;;;5052558;28;20055;-70
2022/12/15 14:01:59;;;;;;;104.47;53.63;;;1.90;99.90;;;;;;5052175;28;20503;-69
2022/12/15 14:04:25;;;;;;;110.47;55.95;;;1.90;99.90;;;;;;5052315;28;20116;-70
2022/12/15 14:07:00;;;;;;;110.97;56.47;;;1.90;99.90;;;;;;5052041;28;20067;-69
2022/12/15 14:09:31;;;;;;;111.15;54.13;;;2.00;99.90;;;;;;5052848;28;20032;-69
2022/12/15 14:11:57;;;;;;;109.78;55.28;;;2.00;99.90;;;;;;5052203;28;20428;-69
2022/12/15 14:14:29;;;;;;;106.90;53.55;;;1.90;99.90;;;;;;5052531;28;20474;-69
2022/12/15 14:17:07;;;;;;;109.25;53.97;;;2.00;99.90;;;;;;5051878;28;20489;-69
2022/12/15 14:19:47;;;;;;;115.22;54.13;;;2.00;99.90;;;;;;5052207;28;20029;-68
2022/12/15 14:22:26;;;;;;;105.38;53.88;;;2.00;99.90;;;;;;5052587;28;20032;-70
2022/12/15 14:24:59;;;;;;;103.18;52.53;;;2.00;99.90;;;;;;5050935;28;20067;-68
2022/12/15 14:27:29;;;;;;;112.15;53.42;;;1.90;99.90;;;;;;5052328;28;20025;-69
2022/12/15 14:30:12;;;;;;;110.20;54.15;;;1.90;99.90;;;;;;5050602;28;20051;-69
2022/12/15 14:32:39;;;;;;;105.18;53.42;;;1.90;99.90;;;;;;5052455;28;20500;-73
2022/12/15 14:35:10;;;;;;;106.47;54.67;;;1.90;99.90;;;;;;5052045;28;20051;-69
2022/12/15 14:37:36;;;;;;;112.13;55.00;;;1.90;99.90;;;;;;5052184;28;20045;-69
2022/12/15 14:40:02;;;;;;;111.90;55.20;;;1.90;99.90;;;;;;5050430;28;20036;-69
2022/12/15 14:42:29;;;;;;;115.35;55.15;;;1.90;99.90;;;;;;5052046;28;20438;-68
2022/12/15 14:44:55;;;;;;;104.22;54.58;;;1.80;99.90;;;;;;5050676;28;20059;-68
2022/12/15 14:47:32;;;;;;;107.80;54.13;;;1.90;99.90;;;;;;5051720;28;20021;-69
2022/12/15 14:50:00;;;;;;;119.13;53.35;;;1.90;99.90;;;;;;5051839;28;20025;-70
2022/12/15 14:52:37;;;;;;;103.18;52.85;;;1.90;99.90;;;;;;5052365;28;20527;-70
2022/12/15 14:55:26;;;;;;;111.32;53.67;;;1.90;99.90;;;;;;5051596;28;20071;-69
2022/12/15 14:57:52;;;;;;;104.25;53.85;;;1.90;99.90;;;;;;5051912;28;20025;-69
2022/12/15 15:00:46;;;;;;;121.55;55.03;;;1.90;99.90;;;;;;5051946;28;20037;-69
2022/12/15 15:03:17;;;;;;;107.20;52.72;;;1.90;99.90;;;;;;5051873;28;20029;-69
2022/12/15 15:05:55;;;;;;;115.13;54.47;;;1.90;99.90;;;;;;5051619;28;20086;-69
2022/12/15 15:08:31;;;;;;;105.85;51.58;;;1.90;99.90;;;;;;5052331;28;20051;-69
2022/12/15 15:11:01;;;;;;;108.90;52.60;;;1.90;99.90;;;;;;5051270;28;20116;-69
2022/12/15 15:13:39;;;;;;;108.97;52.05;;;1.90;99.90;;;;;;5052174;28;20040;-69
2022/12/15 15:16:13;;;;;;;105.13;50.88;;;1.90;99.90;;;;;;5054539;28;20343;-69
2022/12/15 15:18:40;;;;;;;105.75;49.42;;;1.90;99.90;;;;;;5055282;28;20539;-69
2022/12/15 15:21:06;;;;;;;105.80;51.22;;;1.90;99.90;;;;;;5054825;28;20079;-69
2022/12/15 15:23:32;;;;;;;103.00;51.33;;;1.90;99.90;;;;;;5055188;28;20539;-69
2022/12/15 15:26:04;;;;;;;110.03;52.35;;;1.80;99.90;;;;;;5054711;28;20025;-69
2022/12/15 15:28:41;;;;;;;105.20;51.00;;;1.80;99.90;;;;;;5055027;28;20029;-69